Time,TemperatureF,DewpointF,PressureIn,WindDirection,WindDirectionDegrees,WindSpeedMPH,WindSpeedGustMPH,Humidity,HourlyPrecipIn,Conditions,Clouds,dailyrainin,SolarRadiationWatts/m^2,SoftwareType,DateUTC
2013-02-07 00:00:00,25.8,4.5,30.15,WNW,300,4.9,10.1,39,0.00,,,-99.99,1.0,HOBO +U30 +Weather +,2013-02-07 05:00:00,
2013-02-07 00:15:00,25.2,4.2,30.15,NW,306,3.8,10.1,39,0.00,,,-99.99,1.0,HOBO +U30 +Weather +,2013-02-07 05:15:00,
2013-02-07 00:30:00,25.1,4.3,30.16,West,270,3.8,8.3,40,0.00,,,-99.99,1.0,HOBO +U30 +Weather +,2013-02-07 05:30:00,
2013-02-07 00:45:00,25.0,4.2,30.17,WNW,296,3.8,9.6,40,0.00,,,-99.99,1.0,HOBO +U30 +Weather +,2013-02-07 05:45:00,
2013-02-07 01:00:00,24.8,4.2,30.17,NW,306,3.8,8.7,40,0.00,,,-99.99,1.0,HOBO +U30 +Weather +,2013-02-07 06:00:00,
2013-02-07 01:15:00,24.3,4.2,30.17,NW,319,3.8,7.8,41,0.00,,,-99.99,1.0,HOBO +U30 +Weather +,2013-02-07 06:15:00,
2013-02-07 01:30:00,24.1,4.2,30.18,NW,314,3.4,7.4,41,0.00,,,-99.99,1.0,HOBO +U30 +Weather +,2013-02-07 06:30:00,
2013-02-07 01:45:00,23.7,4.3,30.19,NW,305,3.4,7.2,42,0.00,,,-99.99,1.0,HOBO +U30 +Weather +,2013-02-07 06:45:00,
2013-02-07 02:00:00,23.2,4.3,30.20,WNW,302,1.6,4.9,43,0.00,,,-99.99,1.0,HOBO +U30 +Weather +,2013-02-07 07:00:00,
2013-02-07 02:15:00,23.1,5.1,30.20,NNW,334,2.9,6.7,45,0.00,,,-99.99,1.0,HOBO +U30 +Weather +,2013-02-07 07:15:00,
2013-02-07 02:30:00,23.0,4.9,30.20,North,355,4.5,10.3,45,0.00,,,-99.99,1.0,HOBO +U30 +Weather +,2013-02-07 07:30:00,
2013-02-07 02:45:00,22.4,4.1,30.20,NNW,348,2.9,7.8,44,0.00,,,-99.99,1.0,HOBO +U30 +Weather +,2013-02-07 07:45:00,
2013-02-07 03:00:00,22.2,4.3,30.21,NNW,338,2.5,5.4,45,0.00,,,-99.99,1.0,HOBO +U30 +Weather +,2013-02-07 08:00:00,
2013-02-07 03:15:00,21.6,3.9,30.22,NNW,341,1.6,3.8,45,0.00,,,-99.99,1.0,HOBO +U30 +Weather +,2013-02-07 08:15:00,
2013-02-07 03:30:00,21.6,4.8,30.23,North,351,2.0,5.8,47,0.00,,,-99.99,1.0,HOBO +U30 +Weather +,2013-02-07 08:30:00,
2013-02-07 03:45:00,20.7,3.8,30.24,North,0,2.0,4.5,47,0.00,,,-99.99,1.0,HOBO +U30 +Weather +,2013-02-07 08:45:00,
2013-02-07 04:00:00,20.3,4.3,30.25,North,0,1.6,3.4,49,0.00,,,-99.99,1.0,HOBO +U30 +Weather +,2013-02-07 09:00:00,
2013-02-07 04:15:00,19.1,4.6,30.26,North,0,1.3,3.4,52,0.00,,,-99.99,1.0,HOBO +U30 +Weather +,2013-02-07 09:15:00,
2013-02-07 04:30:00,19.8,5.1,30.27,North,0,2.0,4.5,52,0.00,,,-99.99,1.0,HOBO +U30 +Weather +,2013-02-07 09:30:00,
2013-02-07 04:45:00,19.9,4.0,30.26,North,4,2.5,4.5,49,0.00,,,-99.99,1.0,HOBO +U30 +Weather +,2013-02-07 09:45:00,
2013-02-07 05:00:00,19.9,3.1,30.26,NNE,15,2.9,6.3,47,0.00,,,-99.99,1.0,HOBO +U30 +Weather +,2013-02-07 10:00:00,
2013-02-07 05:15:00,19.4,2.2,30.27,North,6,2.5,4.5,46,0.00,,,-99.99,1.0,HOBO +U30 +Weather +,2013-02-07 10:15:00,
2013-02-07 05:30:00,19.2,2.1,30.27,North,354,2.5,5.4,46,0.00,,,-99.99,1.0,HOBO +U30 +Weather +,2013-02-07 10:30:00,
2013-02-07 05:45:00,18.7,1.9,30.28,North,7,1.3,2.9,47,0.00,,,-99.99,1.0,HOBO +U30 +Weather +,2013-02-07 10:45:00,
2013-02-07 06:00:00,18.7,2.4,30.28,North,1,2.5,5.8,48,0.00,,,-99.99,1.0,HOBO +U30 +Weather +,2013-02-07 11:00:00,
2013-02-07 06:15:00,19.1,2.0,30.28,North,3,3.4,6.3,46,0.00,,,-99.99,1.0,HOBO +U30 +Weather +,2013-02-07 11:15:00,
2013-02-07 06:30:00,19.1,1.4,30.29,North,1,3.4,7.2,45,0.00,,,-99.99,1.0,HOBO +U30 +Weather +,2013-02-07 11:30:00,
2013-02-07 06:45:00,18.9,0.8,30.30,North,355,4.3,9.6,44,0.00,,,-99.99,6.0,HOBO +U30 +Weather +,2013-02-07 11:45:00,
2013-02-07 07:00:00,18.8,1.0,30.32,NNW,341,3.4,7.2,45,0.00,,,-99.99,16.0,HOBO +U30 +Weather +,2013-02-07 12:00:00,
2013-02-07 07:15:00,18.9,1.2,30.32,NNW,340,2.5,6.3,45,0.00,,,-99.99,38.0,HOBO +U30 +Weather +,2013-02-07 12:15:00,
2013-02-07 07:30:00,19.5,1.9,30.32,NNW,337,2.9,6.7,45,0.00,,,-99.99,112.0,HOBO +U30 +Weather +,2013-02-07 12:30:00,
2013-02-07 07:45:00,20.1,1.7,30.33,NNW,329,4.5,10.7,43,0.00,,,-99.99,157.0,HOBO +U30 +Weather +,2013-02-07 12:45:00,
2013-02-07 08:00:00,20.6,1.5,30.34,NNW,327,5.4,12.5,42,0.00,,,-99.99,183.0,HOBO +U30 +Weather +,2013-02-07 13:00:00,
2013-02-07 08:15:00,21.3,1.6,30.35,NW,316,4.5,9.6,41,0.00,,,-99.99,102.0,HOBO +U30 +Weather +,2013-02-07 13:15:00,
2013-02-07 08:30:00,21.6,1.5,30.36,NW,326,5.4,10.7,40,0.00,,,-99.99,74.0,HOBO +U30 +Weather +,2013-02-07 13:30:00,
2013-02-07 08:45:00,21.3,0.8,30.36,NNW,337,5.4,11.2,40,0.00,,,-99.99,99.0,HOBO +U30 +Weather +,2013-02-07 13:45:00,
2013-02-07 09:00:00,21.6,0.7,30.36,NW,321,4.9,10.7,39,0.00,,,-99.99,109.0,HOBO +U30 +Weather +,2013-02-07 14:00:00,
2013-02-07 09:15:00,21.6,0.5,30.36,NNW,331,6.7,12.5,39,0.00,,,-99.99,94.0,HOBO +U30 +Weather +,2013-02-07 14:15:00,
2013-02-07 09:30:00,21.9,0.6,30.37,NNW,330,6.3,12.5,38,0.00,,,-99.99,132.0,HOBO +U30 +Weather +,2013-02-07 14:30:00,
2013-02-07 09:45:00,22.5,1.2,30.37,NW,323,6.3,13.0,38,0.00,,,-99.99,178.0,HOBO +U30 +Weather +,2013-02-07 14:45:00,
2013-02-07 10:00:00,23.1,1.6,30.37,NW,326,5.8,10.7,38,0.00,,,-99.99,442.0,HOBO +U30 +Weather +,2013-02-07 15:00:00,
2013-02-07 10:15:00,24.5,2.0,30.37,NW,316,6.7,14.1,37,0.00,,,-99.99,378.0,HOBO +U30 +Weather +,2013-02-07 15:15:00,
2013-02-07 10:30:00,25.1,1.2,30.37,NNW,334,7.2,13.6,34,0.00,,,-99.99,501.0,HOBO +U30 +Weather +,2013-02-07 15:30:00,
2013-02-07 10:45:00,25.6,1.1,30.36,NW,317,7.2,13.2,33,0.00,,,-99.99,229.0,HOBO +U30 +Weather +,2013-02-07 15:45:00,
2013-02-07 11:00:00,24.0,0.4,30.38,NNW,340,7.2,12.5,35,0.00,,,-99.99,153.0,HOBO +U30 +Weather +,2013-02-07 16:00:00,
2013-02-07 11:15:00,24.8,1.3,30.37,NW,321,5.8,12.5,35,0.00,,,-99.99,233.0,HOBO +U30 +Weather +,2013-02-07 16:15:00,
2013-02-07 11:30:00,25.8,1.5,30.36,NNW,329,5.8,10.7,34,0.00,,,-99.99,391.0,HOBO +U30 +Weather +,2013-02-07 16:30:00,
2013-02-07 11:45:00,26.2,1.1,30.36,NNW,345,7.2,14.5,33,0.00,,,-99.99,504.0,HOBO +U30 +Weather +,2013-02-07 16:45:00,
2013-02-07 12:00:00,26.3,1.0,30.35,NNW,333,7.2,14.1,32,0.00,,,-99.99,522.0,HOBO +U30 +Weather +,2013-02-07 17:00:00,
2013-02-07 12:15:00,26.2,0.8,30.34,NNW,340,7.4,15.4,32,0.00,,,-99.99,541.0,HOBO +U30 +Weather +,2013-02-07 17:15:00,
2013-02-07 12:30:00,27.4,1.5,30.34,NNW,337,5.8,12.5,32,0.00,,,-99.99,519.0,HOBO +U30 +Weather +,2013-02-07 17:30:00,
2013-02-07 12:45:00,27.2,1.2,30.33,NNW,340,5.8,13.2,31,0.00,,,-99.99,498.0,HOBO +U30 +Weather +,2013-02-07 17:45:00,
2013-02-07 13:00:00,27.8,1.5,30.33,NNW,329,5.4,11.6,31,0.00,,,-99.99,499.0,HOBO +U30 +Weather +,2013-02-07 18:00:00,
2013-02-07 13:15:00,28.6,2.0,30.33,NNW,333,5.4,12.1,31,0.00,,,-99.99,383.0,HOBO +U30 +Weather +,2013-02-07 18:15:00,
2013-02-07 13:30:00,27.7,1.1,30.33,NNW,334,5.4,14.1,31,0.00,,,-99.99,341.0,HOBO +U30 +Weather +,2013-02-07 18:30:00,
2013-02-07 13:45:00,28.6,1.9,30.32,NNW,348,4.5,13.0,31,0.00,,,-99.99,349.0,HOBO +U30 +Weather +,2013-02-07 18:45:00,
2013-02-07 14:00:00,28.8,1.9,30.32,NNW,347,4.9,9.2,30,0.00,,,-99.99,294.0,HOBO +U30 +Weather +,2013-02-07 19:00:00,
2013-02-07 14:15:00,28.8,1.7,30.32,NW,323,4.5,9.6,30,0.00,,,-99.99,401.0,HOBO +U30 +Weather +,2013-02-07 19:15:00,
2013-02-07 14:30:00,28.7,1.3,30.32,NNE,29,3.4,7.8,30,0.00,,,-99.99,267.0,HOBO +U30 +Weather +,2013-02-07 19:30:00,
2013-02-07 14:45:00,27.7,0.7,30.32,NE,37,4.5,11.2,30,0.00,,,-99.99,142.0,HOBO +U30 +Weather +,2013-02-07 19:45:00,
2013-02-07 15:00:00,28.6,1.9,30.32,ENE,63,4.5,9.2,31,0.00,,,-99.99,151.0,HOBO +U30 +Weather +,2013-02-07 20:00:00,
2013-02-07 15:15:00,27.9,1.1,30.32,NE,39,5.4,10.1,30,0.00,,,-99.99,118.0,HOBO +U30 +Weather +,2013-02-07 20:15:00,
2013-02-07 15:30:00,28.0,1.4,30.33,NNE,15,3.8,6.7,31,0.00,,,-99.99,132.0,HOBO +U30 +Weather +,2013-02-07 20:30:00,
2013-02-07 15:45:00,28.2,1.5,30.33,NE,45,3.4,7.8,31,0.00,,,-99.99,87.0,HOBO +U30 +Weather +,2013-02-07 20:45:00,
2013-02-07 16:00:00,28.1,1.6,30.33,North,1,2.9,7.2,31,0.00,,,-99.99,101.0,HOBO +U30 +Weather +,2013-02-07 21:00:00,
2013-02-07 16:15:00,28.1,1.7,30.33,North,355,2.0,6.7,31,0.00,,,-99.99,99.0,HOBO +U30 +Weather +,2013-02-07 21:15:00,
2013-02-07 16:30:00,27.9,1.4,30.33,NE,53,2.5,5.8,31,0.00,,,-99.99,48.0,HOBO +U30 +Weather +,2013-02-07 21:30:00,
2013-02-07 16:45:00,27.4,1.2,30.33,North,355,2.5,5.4,31,0.00,,,-99.99,19.0,HOBO +U30 +Weather +,2013-02-07 21:45:00,
2013-02-07 17:00:00,27.2,1.3,30.33,NNE,13,2.9,5.8,32,0.00,,,-99.99,3.0,HOBO +U30 +Weather +,2013-02-07 22:00:00,
2013-02-07 17:15:00,26.9,1.3,30.34,ENE,60,2.5,5.4,32,0.00,,,-99.99,1.0,HOBO +U30 +Weather +,2013-02-07 22:15:00,
2013-02-07 17:30:00,26.4,1.1,30.34,East,83,3.4,6.3,32,0.00,,,-99.99,1.0,HOBO +U30 +Weather +,2013-02-07 22:30:00,
2013-02-07 17:45:00,26.1,0.7,30.35,East,94,3.8,7.8,32,0.00,,,-99.99,1.0,HOBO +U30 +Weather +,2013-02-07 22:45:00,
2013-02-07 18:00:00,26.1,0.6,30.35,East,86,3.4,5.8,32,0.00,,,-99.99,1.0,HOBO +U30 +Weather +,2013-02-07 23:00:00,
2013-02-07 18:15:00,26.2,0.4,30.35,East,83,4.3,6.7,32,0.00,,,-99.99,1.0,HOBO +U30 +Weather +,2013-02-07 23:15:00,
2013-02-07 18:30:00,26.2,0.8,30.36,East,83,4.3,7.4,32,0.00,,,-99.99,1.0,HOBO +U30 +Weather +,2013-02-07 23:30:00,
2013-02-07 18:45:00,26.3,1.2,30.37,East,93,3.8,7.2,33,0.00,,,-99.99,1.0,HOBO +U30 +Weather +,2013-02-07 23:45:00,
2013-02-07 19:00:00,25.8,2.9,30.37,East,86,4.3,7.4,36,0.00,,,-99.99,1.0,HOBO +U30 +Weather +,2013-02-08 00:00:00,
2013-02-07 19:15:00,25.2,5.5,30.37,ESE,102,4.3,8.3,42,0.00,,,-99.99,1.0,HOBO +U30 +Weather +,2013-02-08 00:15:00,
2013-02-07 19:30:00,24.9,6.0,30.36,ESE,119,3.8,7.2,43,0.00,,,-99.99,1.0,HOBO +U30 +Weather +,2013-02-08 00:30:00,
2013-02-07 19:45:00,24.9,6.5,30.37,ESE,111,3.4,6.3,44,0.00,,,-99.99,1.0,HOBO +U30 +Weather +,2013-02-08 00:45:00,
2013-02-07 20:00:00,25.2,7.1,30.36,ESE,107,3.8,6.7,45,0.00,,,-99.99,1.0,HOBO +U30 +Weather +,2013-02-08 01:00:00,
2013-02-07 20:15:00,25.4,7.6,30.36,ESE,102,3.8,7.2,46,0.00,,,-99.99,1.0,HOBO +U30 +Weather +,2013-02-08 01:15:00,
2013-02-07 20:30:00,25.5,8.3,30.36,East,97,2.9,5.4,47,0.00,,,-99.99,1.0,HOBO +U30 +Weather +,2013-02-08 01:30:00,
2013-02-07 20:45:00,25.9,8.9,30.36,East,93,4.3,9.2,47,0.00,,,-99.99,1.0,HOBO +U30 +Weather +,2013-02-08 01:45:00,
2013-02-07 21:00:00,26.1,8.6,30.36,East,81,4.3,7.4,46,0.00,,,-99.99,1.0,HOBO +U30 +Weather +,2013-02-08 02:00:00,
2013-02-07 21:15:00,26.1,8.7,30.36,East,84,4.3,8.7,47,0.00,,,-99.99,1.0,HOBO +U30 +Weather +,2013-02-08 02:15:00,
2013-02-07 21:30:00,26.2,10.2,30.36,ESE,105,4.9,8.7,50,0.00,,,-99.99,1.0,HOBO +U30 +Weather +,2013-02-08 02:30:00,
2013-02-07 21:45:00,25.9,11.6,30.36,ESE,108,3.4,8.7,54,0.00,,,-99.99,1.0,HOBO +U30 +Weather +,2013-02-08 02:45:00,
2013-02-07 22:00:00,25.8,12.3,30.35,SE,128,3.4,7.4,56,0.00,,,-99.99,1.0,HOBO +U30 +Weather +,2013-02-08 03:00:00,
2013-02-07 22:15:00,25.9,13.2,30.35,ESE,119,3.8,7.4,58,0.00,,,-99.99,1.0,HOBO +U30 +Weather +,2013-02-08 03:15:00,
2013-02-07 22:30:00,26.1,13.7,30.35,ESE,118,3.4,6.7,58,0.00,,,-99.99,1.0,HOBO +U30 +Weather +,2013-02-08 03:30:00,
2013-02-07 22:45:00,26.1,14.3,30.35,ESE,112,3.8,7.2,60,0.00,,,-99.99,1.0,HOBO +U30 +Weather +,2013-02-08 03:45:00,
2013-02-07 23:00:00,26.2,15.3,30.35,ESE,119,3.8,7.2,63,0.00,,,-99.99,1.0,HOBO +U30 +Weather +,2013-02-08 04:00:00,
2013-02-07 23:15:00,26.2,15.7,30.35,SE,135,2.9,5.8,64,0.00,,,-99.99,1.0,HOBO +U30 +Weather +,2013-02-08 04:15:00,
2013-02-07 23:30:00,26.1,15.6,30.35,SE,142,2.9,5.4,64,0.00,,,-99.99,1.0,HOBO +U30 +Weather +,2013-02-08 04:30:00,
2013-02-07 23:45:00,26.1,16.1,30.35,SE,136,1.6,4.3,65,0.00,,,-99.99,1.0,HOBO +U30 +Weather +,2013-02-08 04:45:00,